createdAt,value
2023-09-12T00:02:57.443Z,52.40
2023-09-12T00:06:05.226Z,50.80
2023-09-12T00:09:17.399Z,54.25
2023-09-12T00:12:27.847Z,57.28
2023-09-12T00:15:35.229Z,58.75
2023-09-12T00:18:41.782Z,49.53
2023-09-12T00:21:49.371Z,53.40
2023-09-12T00:24:57.702Z,50.38
2023-09-12T00:28:05.183Z,51.63
2023-09-12T00:31:10.665Z,55.97
2023-09-12T00:34:20.618Z,53.72
2023-09-12T00:37:26.069Z,48.67
2023-09-12T00:40:36.933Z,55.55
2023-09-12T00:43:42.398Z,59.50
2023-09-12T00:46:51.465Z,57.15
2023-09-12T00:49:57.336Z,52.95
2023-09-12T00:53:06.425Z,51.95
2023-09-12T00:56:14.897Z,57.17
2023-09-12T00:59:22.734Z,56.95
2023-09-12T01:02:28.826Z,52.08
2023-09-12T01:05:36.509Z,54.38
2023-09-12T01:08:42.055Z,54.70
2023-09-12T01:11:54.110Z,54.95
2023-09-12T01:14:59.482Z,55.72
2023-09-12T01:18:07.612Z,51.25
2023-09-12T01:21:42.151Z,55.83
2023-09-12T01:25:17.812Z,53.58
2023-09-12T01:28:29.105Z,57.28
2023-09-12T01:31:38.429Z,54.27
2023-09-12T01:34:43.833Z,53.78
2023-09-12T01:37:51.169Z,47.55
2023-09-12T01:40:58.021Z,47.75
2023-09-12T01:44:09.996Z,43.20
2023-09-12T01:47:16.815Z,41.65
2023-09-12T01:50:25.459Z,44.42
2023-09-12T01:53:31.673Z,45.58
2023-09-12T01:56:39.524Z,47.53
2023-09-12T01:59:48.432Z,55.80
2023-09-12T02:02:55.915Z,45.38
2023-09-12T02:06:01.308Z,45.05
2023-09-12T02:09:08.892Z,46.70
2023-09-12T02:12:14.357Z,47.25
2023-09-12T02:15:24.389Z,42.15
2023-09-12T02:18:29.958Z,44.95
2023-09-12T02:21:37.313Z,43.63
2023-09-12T02:24:42.874Z,47.33
2023-09-12T02:27:50.458Z,44.15
2023-09-12T02:30:58.527Z,53.10
2023-09-12T02:34:06.298Z,47.42
2023-09-12T02:37:11.684Z,47.17
2023-09-12T02:40:19.610Z,40.97
2023-09-12T02:43:24.990Z,39.85
2023-09-12T02:46:35.241Z,40.83
2023-09-12T02:49:40.768Z,48.67
2023-09-12T02:52:48.389Z,41.15
2023-09-12T02:55:55.772Z,41.10
2023-09-12T02:59:03.476Z,40.35
2023-09-12T03:02:11.684Z,41.50
2023-09-12T03:05:19.113Z,46.70
2023-09-12T03:08:24.498Z,46.55
2023-09-12T03:11:32.039Z,48.28
2023-09-12T03:14:37.432Z,37.72
2023-09-12T03:17:47.329Z,41.38
2023-09-12T03:20:52.822Z,39.92
2023-09-12T03:24:00.225Z,36.38
2023-09-12T03:27:05.570Z,47.35
2023-09-12T03:30:15.217Z,39.03
2023-09-12T03:33:23.504Z,45.13
2023-09-12T03:36:30.959Z,50.08
2023-09-12T03:39:36.472Z,50.20
2023-09-12T03:42:44.057Z,53.65
2023-09-12T03:45:50.291Z,49.08
2023-09-12T03:49:00.534Z,62.35
2023-09-12T03:52:06.207Z,55.25
2023-09-12T03:55:14.617Z,47.95
2023-09-12T03:58:20.400Z,50.00
2023-09-12T04:01:27.764Z,48.17
2023-09-12T04:04:35.995Z,47.90
2023-09-12T04:07:43.641Z,46.97
2023-09-12T04:10:49.135Z,54.20
2023-09-12T04:13:56.470Z,49.33
2023-09-12T04:17:01.945Z,51.40
2023-09-12T04:20:15.372Z,55.25
2023-09-12T04:23:21.364Z,55.58
2023-09-12T04:26:29.435Z,59.92
2023-09-12T04:29:36.830Z,54.88
2023-09-12T04:32:45.187Z,55.10
2023-09-12T04:35:53.624Z,58.17
2023-09-12T04:39:01.738Z,57.40
2023-09-12T04:42:08.322Z,57.00
2023-09-12T04:45:15.930Z,56.58
2023-09-12T04:48:21.372Z,55.58
2023-09-12T04:51:31.528Z,56.60
2023-09-12T04:54:38.067Z,52.83
2023-09-12T04:57:45.472Z,53.55
2023-09-12T05:00:50.843Z,54.00
2023-09-12T05:03:58.381Z,54.97
2023-09-12T05:07:06.633Z,53.40
2023-09-12T05:10:14.032Z,55.17
2023-09-12T05:13:19.568Z,53.70
2023-09-12T05:16:26.980Z,51.15
2023-09-12T05:19:34.907Z,63.72
2023-09-12T05:22:44.833Z,57.22
2023-09-12T05:25:50.309Z,60.08
2023-09-12T05:28:58.089Z,64.63
2023-09-12T05:32:04.935Z,62.50
2023-09-12T05:35:21.388Z,65.22
2023-09-12T05:38:31.477Z,55.67
2023-09-12T05:41:39.921Z,60.33
2023-09-12T05:44:47.800Z,51.30
2023-09-12T05:47:55.241Z,61.35
2023-09-12T05:51:00.628Z,58.15
2023-09-12T05:54:11.106Z,61.45
2023-09-12T05:57:16.729Z,61.95
2023-09-12T06:00:24.329Z,66.65
2023-09-12T06:03:30.341Z,64.70
2023-09-12T06:06:37.973Z,70.50
2023-09-12T06:09:46.005Z,62.83
2023-09-12T06:12:53.688Z,61.22
2023-09-12T06:15:58.999Z,64.38
2023-09-12T06:19:06.374Z,64.90
2023-09-12T06:22:11.711Z,69.78
2023-09-12T06:25:21.750Z,58.08
2023-09-12T06:28:31.342Z,62.60
2023-09-12T06:31:38.917Z,60.03
2023-09-12T06:34:44.196Z,58.35
2023-09-12T06:37:51.490Z,55.95
2023-09-12T06:40:59.736Z,47.88
2023-09-12T06:44:08.348Z,53.13
2023-09-12T06:47:14.652Z,48.20
2023-09-12T06:50:22.289Z,51.08
2023-09-12T06:53:27.614Z,51.63
2023-09-12T06:56:39.143Z,50.40
2023-09-12T06:59:45.355Z,51.38
2023-09-12T07:02:53.056Z,43.45
2023-09-12T07:05:58.642Z,49.90
2023-09-12T07:09:06.375Z,49.28
2023-09-12T07:12:14.463Z,53.30
2023-09-12T07:15:22.164Z,57.42
2023-09-12T07:18:27.524Z,53.78
2023-09-12T07:21:35.996Z,53.05
2023-09-12T07:24:41.437Z,54.17
2023-09-12T07:27:51.378Z,54.88
2023-09-12T07:30:57.707Z,62.35
2023-09-12T07:34:07.554Z,61.38
2023-09-12T07:37:14.287Z,68.45
2023-09-12T07:40:21.625Z,62.47
2023-09-12T07:43:29.485Z,60.28
2023-09-12T07:46:36.878Z,65.60
2023-09-12T07:49:42.222Z,67.18
2023-09-12T07:52:49.599Z,61.80
2023-09-12T07:55:56.133Z,58.80
2023-09-12T07:59:06.364Z,65.63
2023-09-12T08:02:14.037Z,65.82
2023-09-12T08:05:21.508Z,63.33
2023-09-12T08:08:26.997Z,65.07
2023-09-12T08:11:34.317Z,68.40
2023-09-12T08:14:42.598Z,71.25
2023-09-12T08:17:53.248Z,73.50
2023-09-12T08:20:58.899Z,72.30
2023-09-12T08:24:06.502Z,66.93
2023-09-12T08:27:13.566Z,65.13
2023-09-12T08:30:23.685Z,61.38
2023-09-12T08:33:29.144Z,65.05
2023-09-12T08:36:37.453Z,63.00
2023-09-12T08:39:47.473Z,64.30
2023-09-12T08:42:58.313Z,59.25
2023-09-12T08:46:06.285Z,56.55
2023-09-12T08:49:14.850Z,59.92
2023-09-12T08:52:20.311Z,60.90
2023-09-12T08:55:27.585Z,55.95
2023-09-12T08:58:32.930Z,69.10
2023-09-12T09:01:43.444Z,67.25
2023-09-12T09:04:52.866Z,59.83
2023-09-12T09:08:01.141Z,57.63
2023-09-12T09:11:07.680Z,73.05
2023-09-12T09:14:15.172Z,58.67
2023-09-12T09:17:34.661Z,55.40
2023-09-12T09:20:43.095Z,62.17
2023-09-12T09:23:49.234Z,57.08
2023-09-12T09:27:01.616Z,59.67
2023-09-12T09:30:07.577Z,54.20
2023-09-12T09:33:19.849Z,54.58
2023-09-12T09:36:25.353Z,58.78
2023-09-12T09:39:32.798Z,53.97
2023-09-12T09:42:38.219Z,60.47
2023-09-12T09:45:49.824Z,52.47
2023-09-12T09:48:58.974Z,53.50
2023-09-12T09:52:08.738Z,51.17
2023-09-12T09:55:17.643Z,53.70
2023-09-12T09:58:28.005Z,50.85
2023-09-12T10:01:35.193Z,48.80
2023-09-12T10:04:48.149Z,44.42
2023-09-12T10:07:55.081Z,41.13
2023-09-12T10:11:03.256Z,43.47
2023-09-12T10:14:09.359Z,41.17
2023-09-12T10:17:19.316Z,42.75
2023-09-12T10:20:32.397Z,36.10
2023-09-12T10:23:45.864Z,40.55
2023-09-12T10:26:53.760Z,40.78
2023-09-12T10:30:01.657Z,40.80
2023-09-12T10:33:09.638Z,32.25
2023-09-12T10:36:22.382Z,34.83
2023-09-12T10:39:30.637Z,39.30
2023-09-12T10:42:39.242Z,35.97
2023-09-12T10:45:45.408Z,32.20
2023-09-12T10:48:54.376Z,34.83
2023-09-12T10:52:02.750Z,35.33
2023-09-12T10:55:11.224Z,37.03
2023-09-12T10:58:16.685Z,31.35
2023-09-12T11:01:28.008Z,27.35
2023-09-12T11:04:39.036Z,30.33
2023-09-12T11:07:50.647Z,29.25
2023-09-12T11:11:20.659Z,30.25
2023-09-12T11:14:28.319Z,24.75
2023-09-12T11:17:33.641Z,24.83
2023-09-12T11:21:04.866Z,30.60
2023-09-12T11:24:13.478Z,23.35
2023-09-12T11:27:21.088Z,25.50
2023-09-12T11:30:27.831Z,24.08
2023-09-12T11:33:36.382Z,23.02
2023-09-12T11:36:46.021Z,20.23
2023-09-12T11:39:58.967Z,17.58
2023-09-12T11:43:04.775Z,19.48
2023-09-12T11:46:12.853Z,18.00
2023-09-12T11:49:19.083Z,18.33
2023-09-12T11:52:26.423Z,22.98
2023-09-12T11:55:36.354Z,18.88
2023-09-12T11:58:43.643Z,19.35
2023-09-12T12:01:50.023Z,25.67
2023-09-12T12:04:59.648Z,17.60
2023-09-12T12:11:20.063Z,19.85
2023-09-12T12:14:26.938Z,19.63
2023-09-12T12:17:34.237Z,17.77
2023-09-12T12:20:39.700Z,16.75
2023-09-12T12:23:47.038Z,20.58
2023-09-12T12:26:55.257Z,15.65
2023-09-12T12:30:02.549Z,17.20
2023-09-12T12:33:54.856Z,17.23
2023-09-12T12:36:56.232Z,18.80
2023-09-12T12:40:04.835Z,17.42
2023-09-12T12:43:24.183Z,21.00
2023-09-12T12:46:30.089Z,17.02
2023-09-12T12:49:41.602Z,20.90
2023-09-12T12:52:46.970Z,16.88
2023-09-12T12:55:54.300Z,19.08
2023-09-12T12:59:04.434Z,15.93
2023-09-12T13:02:11.908Z,16.33
2023-09-12T13:05:25.154Z,16.30
2023-09-12T13:08:32.436Z,17.13
2023-09-12T13:11:38.381Z,13.30
2023-09-12T13:14:48.337Z,14.63
2023-09-12T13:17:53.817Z,12.20
2023-09-12T13:21:01.507Z,11.27
2023-09-12T13:24:07.322Z,14.00
2023-09-12T13:27:14.614Z,12.93
2023-09-12T13:30:22.620Z,13.75
2023-09-12T13:33:29.976Z,13.75
2023-09-12T13:36:35.417Z,12.45
2023-09-12T13:39:42.970Z,12.30
2023-09-12T13:42:48.305Z,10.95
2023-09-12T13:45:58.365Z,11.00
2023-09-12T13:49:04.926Z,9.95
2023-09-12T13:52:12.323Z,10.43
2023-09-12T13:55:23.224Z,12.55
2023-09-12T13:58:41.406Z,13.40
2023-09-12T14:01:53.288Z,11.27
2023-09-12T14:05:11.274Z,11.57
2023-09-12T14:08:18.660Z,12.55
2023-09-12T14:11:32.887Z,12.88
2023-09-12T14:14:43.011Z,12.45
2023-09-12T14:17:57.194Z,11.65
2023-09-12T14:21:02.920Z,15.35
2023-09-12T14:24:12.603Z,10.57
2023-09-12T14:27:26.503Z,14.90
2023-09-12T14:30:37.118Z,12.27
2023-09-12T14:33:46.024Z,11.85
2023-09-12T14:36:53.656Z,14.35
2023-09-12T14:39:59.368Z,10.90
2023-09-12T14:43:07.151Z,15.95
2023-09-12T14:46:12.620Z,12.20
2023-09-12T14:49:23.323Z,9.80
2023-09-12T14:52:31.101Z,11.98
2023-09-12T14:55:38.541Z,11.15
2023-09-12T14:58:43.953Z,8.93
2023-09-12T15:01:51.265Z,14.57
2023-09-12T15:04:59.655Z,11.88
2023-09-12T15:08:08.144Z,11.07
2023-09-12T15:11:13.691Z,13.23
2023-09-12T15:14:21.014Z,10.48
2023-09-12T15:17:26.250Z,12.48
2023-09-12T15:20:36.318Z,13.95
2023-09-12T15:23:41.831Z,11.05
2023-09-12T15:26:49.371Z,12.45
2023-09-12T15:29:54.626Z,11.27
2023-09-12T15:33:02.046Z,12.65
2023-09-12T15:36:10.233Z,10.30
2023-09-12T15:39:18.694Z,9.82
2023-09-12T15:42:32.785Z,8.25
2023-09-12T15:45:51.140Z,12.95
2023-09-12T15:48:57.258Z,14.18
2023-09-12T15:52:08.506Z,10.45
2023-09-12T15:55:14.883Z,9.30
2023-09-12T15:58:22.286Z,10.13
2023-09-12T16:01:27.848Z,11.73
2023-09-12T16:04:35.205Z,7.40
2023-09-12T16:07:43.707Z,13.52
2023-09-12T16:10:51.553Z,9.48
2023-09-12T16:13:56.841Z,11.13
2023-09-12T16:17:04.312Z,12.27
2023-09-12T16:20:11.005Z,8.93
2023-09-12T16:23:20.853Z,7.60
2023-09-12T16:26:26.619Z,11.85
2023-09-12T16:29:34.020Z,11.32
2023-09-12T16:32:40.979Z,15.82
2023-09-12T16:35:48.771Z,9.13
2023-09-12T16:38:57.309Z,10.07
2023-09-12T16:42:04.661Z,14.07
2023-09-12T16:45:11.951Z,8.45
2023-09-12T16:48:19.324Z,9.77
2023-09-12T16:51:25.220Z,13.40
2023-09-12T16:54:35.185Z,11.00
2023-09-12T16:57:40.415Z,10.93
2023-09-12T17:00:47.751Z,9.00
2023-09-12T17:04:02.272Z,9.60
2023-09-12T17:07:10.338Z,8.98
2023-09-12T17:10:18.251Z,9.65
2023-09-12T17:13:25.669Z,10.48
2023-09-12T17:16:30.988Z,11.45
2023-09-12T17:19:38.605Z,10.15
2023-09-12T17:22:43.979Z,12.60
2023-09-12T17:25:54.127Z,11.38
2023-09-12T17:29:00.343Z,14.95
2023-09-12T17:32:13.067Z,13.63
2023-09-12T17:35:18.666Z,12.40
2023-09-12T17:38:26.227Z,13.20
2023-09-12T17:41:34.375Z,18.33
2023-09-12T17:44:41.613Z,10.38
2023-09-12T17:47:47.196Z,11.65
2023-09-12T17:50:54.926Z,15.30
2023-09-12T17:54:00.162Z,13.68
2023-09-12T17:57:10.278Z,13.75
2023-09-12T18:00:16.040Z,15.32
2023-09-12T18:03:23.511Z,13.20
2023-09-12T18:06:30.412Z,11.95
2023-09-12T18:09:38.322Z,15.90
2023-09-12T18:12:46.196Z,10.35
2023-09-12T18:15:54.577Z,11.07
2023-09-12T18:19:00.244Z,11.82
2023-09-12T18:22:08.146Z,12.70
2023-09-12T18:25:13.578Z,12.80
2023-09-12T18:28:42.992Z,11.70
2023-09-12T18:31:48.537Z,9.20
2023-09-12T18:34:56.938Z,15.35
2023-09-12T18:38:04.374Z,11.73
2023-09-12T18:41:12.651Z,16.20
2023-09-12T18:44:22.043Z,20.52
2023-09-12T18:47:30.988Z,16.77
2023-09-12T18:50:36.214Z,17.58
2023-09-12T18:53:44.085Z,19.65
2023-09-12T18:56:49.611Z,16.35
2023-09-12T18:59:59.507Z,14.85
2023-09-12T19:03:05.072Z,15.20
2023-09-12T19:06:12.644Z,14.90
2023-09-12T19:09:17.859Z,14.85
2023-09-12T19:12:25.241Z,15.85
2023-09-12T19:15:33.135Z,17.05
2023-09-12T19:18:40.577Z,14.30
2023-09-12T19:21:46.826Z,14.27
2023-09-12T19:24:54.595Z,17.25
2023-09-12T19:28:00.105Z,12.20
2023-09-12T19:31:10.196Z,13.45
2023-09-12T19:34:15.635Z,17.80
2023-09-12T19:37:23.004Z,16.92
2023-09-12T19:40:29.558Z,13.93
2023-09-12T19:43:37.310Z,19.05
2023-09-12T19:46:45.302Z,16.83
2023-09-12T19:49:53.552Z,16.02
2023-09-12T19:52:58.859Z,16.27
2023-09-12T19:56:06.761Z,19.58
2023-09-12T19:59:12.153Z,15.85
2023-09-12T20:02:22.147Z,19.08
2023-09-12T20:05:27.430Z,16.67
2023-09-12T20:08:34.735Z,15.27
2023-09-12T20:11:41.390Z,16.25
2023-09-12T20:14:48.766Z,15.63
2023-09-12T20:18:09.497Z,20.10
2023-09-12T20:21:17.019Z,15.93
2023-09-12T20:24:22.622Z,17.70
2023-09-12T20:27:29.973Z,18.33
2023-09-12T20:30:35.296Z,12.65
2023-09-12T20:33:45.960Z,15.98
2023-09-12T20:36:52.082Z,17.88
2023-09-12T20:39:59.855Z,16.02
2023-09-12T20:43:05.200Z,13.18
2023-09-12T20:46:12.845Z,16.15
2023-09-12T20:49:20.812Z,16.75
2023-09-12T20:52:28.138Z,16.45
2023-09-12T20:55:34.322Z,14.95
2023-09-12T20:58:41.548Z,12.02
2023-09-12T21:01:46.940Z,13.57
2023-09-12T21:04:56.958Z,16.48
2023-09-12T21:08:02.517Z,14.30
2023-09-12T21:11:09.909Z,16.58
2023-09-12T21:14:15.546Z,14.73
2023-09-12T21:17:24.711Z,15.02
2023-09-12T21:20:32.716Z,14.30
2023-09-12T21:23:40.127Z,14.07
2023-09-12T21:26:45.405Z,16.38
2023-09-12T21:29:52.689Z,12.23
2023-09-12T21:32:58.042Z,14.27
2023-09-12T21:36:08.574Z,14.07
2023-09-12T21:39:13.896Z,21.10
2023-09-12T21:42:21.317Z,16.70
2023-09-12T21:45:26.604Z,13.98
2023-09-12T21:48:34.104Z,14.45
2023-09-12T21:51:42.005Z,14.63
2023-09-12T21:54:49.360Z,16.45
2023-09-12T21:57:54.724Z,14.43
2023-09-12T22:01:02.301Z,14.65
2023-09-12T22:04:08.366Z,16.02
2023-09-12T22:07:19.026Z,14.18
2023-09-12T22:10:24.678Z,18.70
2023-09-12T22:13:35.370Z,16.02
2023-09-12T22:16:42.865Z,16.70
2023-09-12T22:19:48.273Z,23.88
2023-09-12T22:22:58.167Z,15.95
2023-09-12T22:26:11.665Z,18.27
2023-09-12T22:29:18.956Z,18.83
2023-09-12T22:32:24.213Z,16.30
2023-09-12T22:35:31.542Z,26.83
2023-09-12T22:38:39.709Z,19.33
2023-09-12T22:41:47.012Z,16.25
2023-09-12T22:44:52.448Z,16.83
2023-09-12T22:47:59.753Z,14.65
2023-09-12T22:51:05.304Z,17.27
2023-09-12T22:54:15.230Z,16.48
2023-09-12T22:57:20.725Z,22.05
2023-09-12T23:00:28.347Z,19.75
2023-09-12T23:03:33.660Z,21.67
2023-09-12T23:06:41.128Z,17.42
2023-09-12T23:09:49.066Z,15.20
2023-09-12T23:12:56.978Z,19.30
2023-09-12T23:16:03.070Z,18.55
2023-09-12T23:19:10.502Z,16.98
2023-09-12T23:22:16.009Z,15.95
2023-09-12T23:25:26.056Z,20.55
2023-09-12T23:28:31.403Z,17.25
2023-09-12T23:31:38.867Z,20.15
2023-09-12T23:34:44.301Z,17.40
2023-09-12T23:37:51.607Z,21.50
2023-09-12T23:40:59.568Z,22.85
2023-09-12T23:44:07.663Z,19.33
2023-09-12T23:47:13.091Z,24.48
2023-09-12T23:50:20.529Z,17.77
2023-09-12T23:53:25.882Z,17.17
2023-09-12T23:56:37.370Z,17.65
2023-09-12T23:59:43.572Z,22.30
